sensor_id;sensor_type;location;lat;lon;timestamp;P1;durP1;ratioP1;P2;durP2;ratioP2
73672;SDS011;61972;19.480;-99.240;2024-02-26T00:01:42;5.50;;;2.40;;
73672;SDS011;61972;19.480;-99.240;2024-02-26T00:04:13;5.97;;;2.47;;
73672;SDS011;61972;19.480;-99.240;2024-02-26T00:06:40;6.72;;;2.80;;
73672;SDS011;61972;19.480;-99.240;2024-02-26T00:09:07;4.10;;;2.20;;
73672;SDS011;61972;19.480;-99.240;2024-02-26T00:11:36;4.27;;;2.33;;
73672;SDS011;61972;19.480;-99.240;2024-02-26T00:14:03;4.30;;;2.63;;
73672;SDS011;61972;19.480;-99.240;2024-02-26T00:16:29;5.63;;;2.22;;
73672;SDS011;61972;19.480;-99.240;2024-02-26T00:19:10;5.18;;;2.58;;
73672;SDS011;61972;19.480;-99.240;2024-02-26T00:21:39;7.20;;;2.42;;
73672;SDS011;61972;19.480;-99.240;2024-02-26T00:24:13;5.00;;;2.60;;
73672;SDS011;61972;19.480;-99.240;2024-02-26T00:26:40;4.55;;;2.38;;
73672;SDS011;61972;19.480;-99.240;2024-02-26T00:29:06;5.03;;;2.20;;
73672;SDS011;61972;19.480;-99.240;2024-02-26T00:31:32;4.00;;;2.10;;
73672;SDS011;61972;19.480;-99.240;2024-02-26T00:34:02;4.45;;;2.60;;
73672;SDS011;61972;19.480;-99.240;2024-02-26T00:36:28;4.77;;;2.23;;
73672;SDS011;61972;19.480;-99.240;2024-02-26T00:38:55;5.03;;;2.00;;
73672;SDS011;61972;19.480;-99.240;2024-02-26T00:41:24;5.35;;;2.40;;
73672;SDS011;61972;19.480;-99.240;2024-02-26T00:43:50;4.25;;;2.17;;
73672;SDS011;61972;19.480;-99.240;2024-02-26T00:46:16;5.65;;;2.20;;
73672;SDS011;61972;19.480;-99.240;2024-02-26T00:48:43;4.40;;;2.17;;
73672;SDS011;61972;19.480;-99.240;2024-02-26T00:51:12;7.05;;;2.20;;
73672;SDS011;61972;19.480;-99.240;2024-02-26T00:53:38;4.90;;;2.17;;
73672;SDS011;61972;19.480;-99.240;2024-02-26T00:56:04;3.60;;;1.80;;
73672;SDS011;61972;19.480;-99.240;2024-02-26T00:58:30;4.50;;;2.40;;
73672;SDS011;61972;19.480;-99.240;2024-02-26T01:00:59;3.63;;;2.10;;
73672;SDS011;61972;19.480;-99.240;2024-02-26T01:03:25;8.80;;;2.05;;
73672;SDS011;61972;19.480;-99.240;2024-02-26T01:05:51;3.88;;;2.20;;
73672;SDS011;61972;19.480;-99.240;2024-02-26T01:08:17;9.93;;;2.20;;
73672;SDS011;61972;19.480;-99.240;2024-02-26T01:10:46;3.22;;;1.98;;
73672;SDS011;61972;19.480;-99.240;2024-02-26T01:13:15;4.67;;;2.20;;
73672;SDS011;61972;19.480;-99.240;2024-02-26T01:15:41;4.55;;;2.05;;
73672;SDS011;61972;19.480;-99.240;2024-02-26T01:18:09;3.67;;;1.70;;
73672;SDS011;61972;19.480;-99.240;2024-02-26T01:20:35;3.60;;;2.00;;
73672;SDS011;61972;19.480;-99.240;2024-02-26T01:23:01;3.30;;;2.00;;
73672;SDS011;61972;19.480;-99.240;2024-02-26T01:25:30;4.37;;;1.70;;
73672;SDS011;61972;19.480;-99.240;2024-02-26T01:27:56;3.90;;;2.10;;
73672;SDS011;61972;19.480;-99.240;2024-02-26T01:30:22;7.25;;;1.80;;
73672;SDS011;61972;19.480;-99.240;2024-02-26T01:32:51;2.92;;;1.92;;
73672;SDS011;61972;19.480;-99.240;2024-02-26T01:35:17;3.47;;;1.60;;
73672;SDS011;61972;19.480;-99.240;2024-02-26T01:37:43;5.00;;;2.00;;
73672;SDS011;61972;19.480;-99.240;2024-02-26T01:40:09;5.22;;;2.13;;
73672;SDS011;61972;19.480;-99.240;2024-02-26T01:42:38;3.67;;;1.90;;
73672;SDS011;61972;19.480;-99.240;2024-02-26T01:45:04;5.00;;;1.85;;
73672;SDS011;61972;19.480;-99.240;2024-02-26T01:47:32;3.50;;;1.80;;
73672;SDS011;61972;19.480;-99.240;2024-02-26T01:49:59;3.27;;;2.00;;
73672;SDS011;61972;19.480;-99.240;2024-02-26T01:52:25;2.90;;;1.80;;
73672;SDS011;61972;19.480;-99.240;2024-02-26T01:54:51;3.38;;;1.85;;
73672;SDS011;61972;19.480;-99.240;2024-02-26T01:57:20;6.03;;;1.70;;
73672;SDS011;61972;19.480;-99.240;2024-02-26T01:59:47;4.20;;;1.73;;
73672;SDS011;61972;19.480;-99.240;2024-02-26T02:02:13;2.90;;;1.53;;
73672;SDS011;61972;19.480;-99.240;2024-02-26T02:04:44;3.85;;;1.83;;
73672;SDS011;61972;19.480;-99.240;2024-02-26T02:07:10;4.20;;;2.05;;
73672;SDS011;61972;19.480;-99.240;2024-02-26T02:09:38;4.13;;;1.75;;
73672;SDS011;61972;19.480;-99.240;2024-02-26T02:12:04;6.75;;;1.98;;
73672;SDS011;61972;19.480;-99.240;2024-02-26T02:14:32;3.10;;;1.67;;
73672;SDS011;61972;19.480;-99.240;2024-02-26T02:16:58;3.80;;;2.20;;
73672;SDS011;61972;19.480;-99.240;2024-02-26T02:19:24;5.15;;;2.38;;
73672;SDS011;61972;19.480;-99.240;2024-02-26T02:21:50;2.92;;;1.92;;
73672;SDS011;61972;19.480;-99.240;2024-02-26T02:24:16;4.55;;;1.98;;
73672;SDS011;61972;19.480;-99.240;2024-02-26T02:26:43;3.83;;;1.83;;
73672;SDS011;61972;19.480;-99.240;2024-02-26T02:29:09;2.85;;;1.77;;
73672;SDS011;61972;19.480;-99.240;2024-02-26T02:31:36;3.88;;;1.70;;
73672;SDS011;61972;19.480;-99.240;2024-02-26T02:34:02;3.30;;;1.90;;
73672;SDS011;61972;19.480;-99.240;2024-02-26T02:36:29;4.20;;;1.80;;
73672;SDS011;61972;19.480;-99.240;2024-02-26T02:38:55;4.00;;;1.93;;
73672;SDS011;61972;19.480;-99.240;2024-02-26T02:41:21;6.30;;;2.03;;
73672;SDS011;61972;19.480;-99.240;2024-02-26T02:43:48;3.25;;;1.90;;
73672;SDS011;61972;19.480;-99.240;2024-02-26T02:46:14;3.78;;;1.90;;
73672;SDS011;61972;19.480;-99.240;2024-02-26T02:48:41;4.07;;;1.75;;
73672;SDS011;61972;19.480;-99.240;2024-02-26T02:51:13;2.80;;;1.60;;
73672;SDS011;61972;19.480;-99.240;2024-02-26T02:53:39;3.15;;;2.00;;
73672;SDS011;61972;19.480;-99.240;2024-02-26T02:56:05;4.30;;;1.80;;
73672;SDS011;61972;19.480;-99.240;2024-02-26T02:58:32;3.75;;;1.75;;
73672;SDS011;61972;19.480;-99.240;2024-02-26T03:00:58;3.70;;;2.25;;
73672;SDS011;61972;19.480;-99.240;2024-02-26T03:03:25;3.00;;;1.70;;
73672;SDS011;61972;19.480;-99.240;2024-02-26T03:05:53;3.92;;;1.75;;
73672;SDS011;61972;19.480;-99.240;2024-02-26T03:08:22;4.32;;;1.67;;
73672;SDS011;61972;19.480;-99.240;2024-02-26T03:10:53;4.22;;;1.77;;
73672;SDS011;61972;19.480;-99.240;2024-02-26T03:13:20;3.65;;;2.10;;
73672;SDS011;61972;19.480;-99.240;2024-02-26T03:15:49;3.23;;;2.00;;
73672;SDS011;61972;19.480;-99.240;2024-02-26T03:18:18;4.25;;;2.20;;
73672;SDS011;61972;19.480;-99.240;2024-02-26T03:20:47;3.58;;;1.70;;
73672;SDS011;61972;19.480;-99.240;2024-02-26T03:23:13;5.47;;;1.67;;
73672;SDS011;61972;19.480;-99.240;2024-02-26T03:25:42;3.17;;;1.85;;
73672;SDS011;61972;19.480;-99.240;2024-02-26T03:28:11;4.53;;;1.97;;
73672;SDS011;61972;19.480;-99.240;2024-02-26T03:30:38;9.07;;;2.20;;
73672;SDS011;61972;19.480;-99.240;2024-02-26T03:33:04;4.70;;;1.83;;
73672;SDS011;61972;19.480;-99.240;2024-02-26T03:35:30;7.60;;;1.88;;
73672;SDS011;61972;19.480;-99.240;2024-02-26T03:37:59;4.65;;;2.13;;
73672;SDS011;61972;19.480;-99.240;2024-02-26T03:40:25;5.10;;;1.90;;
73672;SDS011;61972;19.480;-99.240;2024-02-26T03:42:52;4.38;;;2.00;;
73672;SDS011;61972;19.480;-99.240;2024-02-26T03:45:19;3.63;;;1.70;;
73672;SDS011;61972;19.480;-99.240;2024-02-26T03:47:45;4.25;;;2.00;;
73672;SDS011;61972;19.480;-99.240;2024-02-26T03:50:11;8.38;;;2.00;;
73672;SDS011;61972;19.480;-99.240;2024-02-26T03:52:37;4.80;;;2.20;;
73672;SDS011;61972;19.480;-99.240;2024-02-26T03:55:04;10.57;;;2.17;;
73672;SDS011;61972;19.480;-99.240;2024-02-26T03:57:30;4.75;;;2.17;;
73672;SDS011;61972;19.480;-99.240;2024-02-26T03:59:59;7.35;;;2.15;;
73672;SDS011;61972;19.480;-99.240;2024-02-26T04:02:28;5.80;;;2.03;;
73672;SDS011;61972;19.480;-99.240;2024-02-26T04:04:54;5.47;;;2.17;;
73672;SDS011;61972;19.480;-99.240;2024-02-26T04:07:20;4.60;;;1.80;;
73672;SDS011;61972;19.480;-99.240;2024-02-26T04:09:46;6.43;;;1.88;;
73672;SDS011;61972;19.480;-99.240;2024-02-26T04:12:12;3.88;;;2.15;;
73672;SDS011;61972;19.480;-99.240;2024-02-26T04:14:39;6.43;;;1.80;;
73672;SDS011;61972;19.480;-99.240;2024-02-26T04:17:05;3.90;;;2.00;;
73672;SDS011;61972;19.480;-99.240;2024-02-26T04:19:31;6.53;;;2.20;;
73672;SDS011;61972;19.480;-99.240;2024-02-26T04:22:00;6.32;;;2.28;;
73672;SDS011;61972;19.480;-99.240;2024-02-26T04:24:27;3.72;;;1.80;;
73672;SDS011;61972;19.480;-99.240;2024-02-26T04:26:53;4.07;;;1.92;;
73672;SDS011;61972;19.480;-99.240;2024-02-26T04:29:19;5.57;;;2.03;;
73672;SDS011;61972;19.480;-99.240;2024-02-26T04:31:45;3.97;;;1.85;;
73672;SDS011;61972;19.480;-99.240;2024-02-26T04:34:12;3.45;;;2.00;;
73672;SDS011;61972;19.480;-99.240;2024-02-26T04:36:38;3.75;;;1.90;;
73672;SDS011;61972;19.480;-99.240;2024-02-26T04:39:04;3.97;;;1.88;;
73672;SDS011;61972;19.480;-99.240;2024-02-26T04:41:30;3.30;;;1.87;;
73672;SDS011;61972;19.480;-99.240;2024-02-26T04:43:56;4.38;;;2.00;;
73672;SDS011;61972;19.480;-99.240;2024-02-26T04:46:22;5.00;;;2.00;;
73672;SDS011;61972;19.480;-99.240;2024-02-26T04:48:48;3.33;;;1.70;;
73672;SDS011;61972;19.480;-99.240;2024-02-26T04:51:14;3.28;;;1.80;;
73672;SDS011;61972;19.480;-99.240;2024-02-26T04:53:41;4.07;;;1.73;;
73672;SDS011;61972;19.480;-99.240;2024-02-26T04:56:07;4.63;;;2.00;;
73672;SDS011;61972;19.480;-99.240;2024-02-26T04:58:33;3.25;;;1.80;;
73672;SDS011;61972;19.480;-99.240;2024-02-26T05:00:59;2.70;;;1.63;;
73672;SDS011;61972;19.480;-99.240;2024-02-26T05:03:25;4.07;;;1.80;;
73672;SDS011;61972;19.480;-99.240;2024-02-26T05:05:51;4.10;;;1.93;;
73672;SDS011;61972;19.480;-99.240;2024-02-26T05:08:17;3.42;;;1.90;;
73672;SDS011;61972;19.480;-99.240;2024-02-26T05:10:45;3.00;;;1.70;;
73672;SDS011;61972;19.480;-99.240;2024-02-26T05:13:11;7.13;;;1.67;;
73672;SDS011;61972;19.480;-99.240;2024-02-26T05:15:37;3.95;;;1.90;;
73672;SDS011;61972;19.480;-99.240;2024-02-26T05:21:31;3.17;;;1.73;;
73672;SDS011;61972;19.480;-99.240;2024-02-26T05:27:21;3.40;;;2.20;;
73672;SDS011;61972;19.480;-99.240;2024-02-26T05:29:48;2.88;;;1.83;;
73672;SDS011;61972;19.480;-99.240;2024-02-26T05:32:19;4.00;;;1.70;;
73672;SDS011;61972;19.480;-99.240;2024-02-26T05:34:45;3.55;;;1.70;;
73672;SDS011;61972;19.480;-99.240;2024-02-26T05:37:11;2.85;;;1.80;;
73672;SDS011;61972;19.480;-99.240;2024-02-26T05:39:37;4.65;;;1.90;;
73672;SDS011;61972;19.480;-99.240;2024-02-26T05:42:04;3.72;;;1.50;;
73672;SDS011;61972;19.480;-99.240;2024-02-26T05:44:30;3.50;;;1.53;;
73672;SDS011;61972;19.480;-99.240;2024-02-26T05:46:56;4.80;;;1.48;;
73672;SDS011;61972;19.480;-99.240;2024-02-26T05:49:22;4.28;;;1.80;;
73672;SDS011;61972;19.480;-99.240;2024-02-26T05:51:48;2.42;;;1.40;;
73672;SDS011;61972;19.480;-99.240;2024-02-26T05:54:15;3.45;;;1.90;;
73672;SDS011;61972;19.480;-99.240;2024-02-26T05:56:41;3.43;;;1.60;;
73672;SDS011;61972;19.480;-99.240;2024-02-26T05:59:07;3.00;;;1.50;;
73672;SDS011;61972;19.480;-99.240;2024-02-26T06:01:34;2.70;;;1.80;;
73672;SDS011;61972;19.480;-99.240;2024-02-26T06:04:00;3.45;;;1.67;;
73672;SDS011;61972;19.480;-99.240;2024-02-26T06:06:26;2.58;;;1.45;;
73672;SDS011;61972;19.480;-99.240;2024-02-26T06:08:52;2.63;;;1.50;;
73672;SDS011;61972;19.480;-99.240;2024-02-26T06:11:18;2.70;;;1.50;;
73672;SDS011;61972;19.480;-99.240;2024-02-26T06:16:59;3.35;;;1.50;;
73672;SDS011;61972;19.480;-99.240;2024-02-26T06:19:25;2.30;;;1.30;;
73672;SDS011;61972;19.480;-99.240;2024-02-26T06:21:51;2.50;;;1.40;;
73672;SDS011;61972;19.480;-99.240;2024-02-26T06:24:17;5.03;;;1.73;;
73672;SDS011;61972;19.480;-99.240;2024-02-26T06:26:49;2.28;;;1.40;;
73672;SDS011;61972;19.480;-99.240;2024-02-26T06:29:15;2.45;;;1.50;;
73672;SDS011;61972;19.480;-99.240;2024-02-26T06:31:41;2.90;;;1.60;;
73672;SDS011;61972;19.480;-99.240;2024-02-26T06:34:08;3.03;;;1.67;;
73672;SDS011;61972;19.480;-99.240;2024-02-26T06:36:34;2.00;;;1.23;;
73672;SDS011;61972;19.480;-99.240;2024-02-26T06:39:00;23.67;;;1.70;;
73672;SDS011;61972;19.480;-99.240;2024-02-26T06:41:26;2.92;;;1.60;;
73672;SDS011;61972;19.480;-99.240;2024-02-26T06:43:55;2.25;;;1.33;;
73672;SDS011;61972;19.480;-99.240;2024-02-26T06:46:22;3.10;;;1.40;;
73672;SDS011;61972;19.480;-99.240;2024-02-26T06:48:48;3.40;;;1.30;;
73672;SDS011;61972;19.480;-99.240;2024-02-26T06:51:17;3.17;;;1.25;;
73672;SDS011;61972;19.480;-99.240;2024-02-26T06:53:43;2.63;;;1.38;;
73672;SDS011;61972;19.480;-99.240;2024-02-26T06:56:10;2.50;;;1.38;;
73672;SDS011;61972;19.480;-99.240;2024-02-26T06:58:36;3.37;;;1.50;;
73672;SDS011;61972;19.480;-99.240;2024-02-26T07:01:02;4.43;;;1.45;;
73672;SDS011;61972;19.480;-99.240;2024-02-26T07:03:28;2.75;;;1.17;;
73672;SDS011;61972;19.480;-99.240;2024-02-26T07:05:55;3.03;;;1.50;;
73672;SDS011;61972;19.480;-99.240;2024-02-26T07:08:24;2.92;;;1.30;;
73672;SDS011;61972;19.480;-99.240;2024-02-26T07:10:50;3.27;;;1.60;;
73672;SDS011;61972;19.480;-99.240;2024-02-26T07:13:17;2.15;;;1.13;;
73672;SDS011;61972;19.480;-99.240;2024-02-26T07:15:46;2.20;;;1.40;;
73672;SDS011;61972;19.480;-99.240;2024-02-26T07:18:12;2.10;;;1.25;;
73672;SDS011;61972;19.480;-99.240;2024-02-26T07:20:38;2.85;;;1.40;;
73672;SDS011;61972;19.480;-99.240;2024-02-26T07:23:04;2.73;;;1.20;;
73672;SDS011;61972;19.480;-99.240;2024-02-26T07:25:33;2.97;;;1.60;;
73672;SDS011;61972;19.480;-99.240;2024-02-26T07:27:59;3.33;;;1.38;;
73672;SDS011;61972;19.480;-99.240;2024-02-26T07:30:25;3.35;;;1.20;;
73672;SDS011;61972;19.480;-99.240;2024-02-26T07:32:52;3.22;;;1.67;;
73672;SDS011;61972;19.480;-99.240;2024-02-26T07:35:18;6.17;;;1.40;;
73672;SDS011;61972;19.480;-99.240;2024-02-26T07:37:44;3.13;;;1.67;;
73672;SDS011;61972;19.480;-99.240;2024-02-26T07:40:13;4.47;;;1.33;;
73672;SDS011;61972;19.480;-99.240;2024-02-26T07:42:39;4.05;;;1.40;;
73672;SDS011;61972;19.480;-99.240;2024-02-26T07:45:05;3.03;;;1.40;;
73672;SDS011;61972;19.480;-99.240;2024-02-26T07:47:34;5.20;;;1.30;;
73672;SDS011;61972;19.480;-99.240;2024-02-26T07:50:01;4.85;;;1.50;;
73672;SDS011;61972;19.480;-99.240;2024-02-26T07:52:27;3.08;;;1.33;;
73672;SDS011;61972;19.480;-99.240;2024-02-26T07:54:53;4.93;;;1.50;;
73672;SDS011;61972;19.480;-99.240;2024-02-26T07:57:19;2.70;;;1.40;;
73672;SDS011;61972;19.480;-99.240;2024-02-26T07:59:46;2.83;;;1.43;;
73672;SDS011;61972;19.480;-99.240;2024-02-26T08:02:15;4.10;;;1.60;;
73672;SDS011;61972;19.480;-99.240;2024-02-26T08:04:41;1.80;;;1.00;;
73672;SDS011;61972;19.480;-99.240;2024-02-26T08:07:08;4.13;;;1.52;;
73672;SDS011;61972;19.480;-99.240;2024-02-26T08:09:34;3.13;;;1.15;;
73672;SDS011;61972;19.480;-99.240;2024-02-26T08:12:00;2.73;;;1.20;;
73672;SDS011;61972;19.480;-99.240;2024-02-26T08:14:26;3.42;;;1.30;;
73672;SDS011;61972;19.480;-99.240;2024-02-26T08:16:52;2.83;;;1.30;;
73672;SDS011;61972;19.480;-99.240;2024-02-26T08:19:18;3.17;;;1.58;;
73672;SDS011;61972;19.480;-99.240;2024-02-26T08:21:44;2.40;;;1.20;;
73672;SDS011;61972;19.480;-99.240;2024-02-26T08:24:10;4.03;;;1.03;;
73672;SDS011;61972;19.480;-99.240;2024-02-26T08:26:37;2.83;;;1.40;;
73672;SDS011;61972;19.480;-99.240;2024-02-26T08:29:03;2.92;;;1.05;;
73672;SDS011;61972;19.480;-99.240;2024-02-26T08:31:32;2.38;;;1.20;;
73672;SDS011;61972;19.480;-99.240;2024-02-26T08:33:58;2.75;;;1.23;;
73672;SDS011;61972;19.480;-99.240;2024-02-26T08:36:26;3.13;;;1.20;;
73672;SDS011;61972;19.480;-99.240;2024-02-26T08:38:52;4.30;;;1.00;;
73672;SDS011;61972;19.480;-99.240;2024-02-26T08:41:18;2.95;;;1.30;;
73672;SDS011;61972;19.480;-99.240;2024-02-26T08:43:44;1.88;;;1.20;;
73672;SDS011;61972;19.480;-99.240;2024-02-26T08:46:12;2.30;;;1.15;;
73672;SDS011;61972;19.480;-99.240;2024-02-26T08:48:38;2.17;;;1.07;;
73672;SDS011;61972;19.480;-99.240;2024-02-26T08:51:08;3.08;;;1.38;;
73672;SDS011;61972;19.480;-99.240;2024-02-26T08:53:38;2.50;;;1.00;;
73672;SDS011;61972;19.480;-99.240;2024-02-26T08:56:04;2.47;;;1.08;;
73672;SDS011;61972;19.480;-99.240;2024-02-26T08:58:31;2.42;;;1.20;;
73672;SDS011;61972;19.480;-99.240;2024-02-26T09:00:57;2.57;;;1.20;;
73672;SDS011;61972;19.480;-99.240;2024-02-26T09:03:23;2.13;;;1.17;;
73672;SDS011;61972;19.480;-99.240;2024-02-26T09:05:49;3.22;;;1.00;;
73672;SDS011;61972;19.480;-99.240;2024-02-26T09:08:16;2.22;;;1.10;;
73672;SDS011;61972;19.480;-99.240;2024-02-26T09:10:42;2.00;;;1.08;;
73672;SDS011;61972;19.480;-99.240;2024-02-26T09:13:08;2.53;;;1.20;;
73672;SDS011;61972;19.480;-99.240;2024-02-26T09:15:34;3.15;;;1.27;;
73672;SDS011;61972;19.480;-99.240;2024-02-26T09:18:00;2.25;;;1.08;;
73672;SDS011;61972;19.480;-99.240;2024-02-26T09:20:28;2.15;;;0.98;;
73672;SDS011;61972;19.480;-99.240;2024-02-26T09:22:54;2.55;;;1.00;;
73672;SDS011;61972;19.480;-99.240;2024-02-26T09:25:21;2.27;;;1.10;;
73672;SDS011;61972;19.480;-99.240;2024-02-26T09:27:47;2.03;;;1.00;;
73672;SDS011;61972;19.480;-99.240;2024-02-26T09:30:13;2.50;;;1.10;;
73672;SDS011;61972;19.480;-99.240;2024-02-26T09:32:40;2.20;;;1.15;;
73672;SDS011;61972;19.480;-99.240;2024-02-26T09:35:06;1.95;;;1.00;;
73672;SDS011;61972;19.480;-99.240;2024-02-26T09:37:33;2.33;;;1.10;;
73672;SDS011;61972;19.480;-99.240;2024-02-26T09:39:59;2.08;;;1.02;;
73672;SDS011;61972;19.480;-99.240;2024-02-26T09:42:26;2.15;;;1.08;;
73672;SDS011;61972;19.480;-99.240;2024-02-26T09:44:55;1.90;;;0.93;;
73672;SDS011;61972;19.480;-99.240;2024-02-26T09:47:24;1.92;;;0.98;;
73672;SDS011;61972;19.480;-99.240;2024-02-26T09:49:53;1.67;;;0.87;;
73672;SDS011;61972;19.480;-99.240;2024-02-26T09:52:23;1.67;;;0.90;;
73672;SDS011;61972;19.480;-99.240;2024-02-26T09:54:50;2.17;;;1.10;;
73672;SDS011;61972;19.480;-99.240;2024-02-26T09:57:16;1.70;;;0.90;;
73672;SDS011;61972;19.480;-99.240;2024-02-26T09:59:43;3.03;;;0.95;;
73672;SDS011;61972;19.480;-99.240;2024-02-26T10:02:14;1.70;;;0.80;;
73672;SDS011;61972;19.480;-99.240;2024-02-26T10:04:41;2.20;;;0.88;;
73672;SDS011;61972;19.480;-99.240;2024-02-26T10:07:11;1.52;;;0.90;;
73672;SDS011;61972;19.480;-99.240;2024-02-26T10:09:39;2.92;;;1.00;;
73672;SDS011;61972;19.480;-99.240;2024-02-26T10:12:06;1.90;;;1.00;;
73672;SDS011;61972;19.480;-99.240;2024-02-26T10:14:34;1.73;;;0.80;;
73672;SDS011;61972;19.480;-99.240;2024-02-26T10:17:01;2.10;;;1.00;;
73672;SDS011;61972;19.480;-99.240;2024-02-26T10:19:28;1.95;;;0.93;;
73672;SDS011;61972;19.480;-99.240;2024-02-26T10:21:59;2.53;;;1.13;;
73672;SDS011;61972;19.480;-99.240;2024-02-26T10:24:26;2.15;;;0.98;;
73672;SDS011;61972;19.480;-99.240;2024-02-26T10:26:56;2.03;;;1.13;;
73672;SDS011;61972;19.480;-99.240;2024-02-26T10:29:23;1.95;;;0.90;;
73672;SDS011;61972;19.480;-99.240;2024-02-26T10:31:51;1.83;;;1.02;;
73672;SDS011;61972;19.480;-99.240;2024-02-26T10:34:18;2.10;;;1.10;;
73672;SDS011;61972;19.480;-99.240;2024-02-26T10:36:44;1.70;;;0.98;;
73672;SDS011;61972;19.480;-99.240;2024-02-26T10:39:13;1.67;;;0.87;;
73672;SDS011;61972;19.480;-99.240;2024-02-26T10:41:43;1.77;;;1.00;;
73672;SDS011;61972;19.480;-99.240;2024-02-26T10:44:10;1.77;;;0.90;;
73672;SDS011;61972;19.480;-99.240;2024-02-26T10:46:38;1.88;;;1.00;;
73672;SDS011;61972;19.480;-99.240;2024-02-26T10:49:08;2.15;;;1.10;;
73672;SDS011;61972;19.480;-99.240;2024-02-26T10:51:45;2.00;;;0.80;;
73672;SDS011;61972;19.480;-99.240;2024-02-26T10:54:17;1.73;;;0.77;;
73672;SDS011;61972;19.480;-99.240;2024-02-26T10:56:45;2.10;;;0.90;;
73672;SDS011;61972;19.480;-99.240;2024-02-26T10:59:13;1.80;;;0.88;;
73672;SDS011;61972;19.480;-99.240;2024-02-26T11:01:46;2.03;;;1.00;;
73672;SDS011;61972;19.480;-99.240;2024-02-26T11:04:15;1.80;;;1.00;;
73672;SDS011;61972;19.480;-99.240;2024-02-26T11:06:43;2.03;;;0.90;;
73672;SDS011;61972;19.480;-99.240;2024-02-26T11:09:12;1.90;;;0.77;;
73672;SDS011;61972;19.480;-99.240;2024-02-26T11:11:39;1.40;;;0.73;;
73672;SDS011;61972;19.480;-99.240;2024-02-26T11:14:06;1.85;;;1.00;;
73672;SDS011;61972;19.480;-99.240;2024-02-26T11:16:35;2.67;;;1.10;;
73672;SDS011;61972;19.480;-99.240;2024-02-26T11:19:03;1.98;;;1.00;;
73672;SDS011;61972;19.480;-99.240;2024-02-26T11:21:32;1.80;;;0.98;;
73672;SDS011;61972;19.480;-99.240;2024-02-26T11:24:06;2.47;;;0.77;;
73672;SDS011;61972;19.480;-99.240;2024-02-26T11:26:34;1.70;;;0.85;;
73672;SDS011;61972;19.480;-99.240;2024-02-26T11:29:05;1.70;;;0.80;;
73672;SDS011;61972;19.480;-99.240;2024-02-26T11:31:36;2.00;;;1.05;;
73672;SDS011;61972;19.480;-99.240;2024-02-26T11:34:03;1.90;;;0.90;;
73672;SDS011;61972;19.480;-99.240;2024-02-26T11:36:29;1.70;;;1.00;;
73672;SDS011;61972;19.480;-99.240;2024-02-26T11:38:55;1.70;;;0.90;;
73672;SDS011;61972;19.480;-99.240;2024-02-26T11:41:22;1.40;;;0.70;;
73672;SDS011;61972;19.480;-99.240;2024-02-26T11:46:25;1.60;;;0.93;;
73672;SDS011;61972;19.480;-99.240;2024-02-26T11:49:02;1.63;;;0.70;;
73672;SDS011;61972;19.480;-99.240;2024-02-26T11:51:52;2.15;;;0.95;;
73672;SDS011;61972;19.480;-99.240;2024-02-26T11:59:54;2.38;;;0.70;;
73672;SDS011;61972;19.480;-99.240;2024-02-26T12:02:45;1.80;;;0.73;;
73672;SDS011;61972;19.480;-99.240;2024-02-26T12:05:16;1.65;;;0.93;;
73672;SDS011;61972;19.480;-99.240;2024-02-26T12:07:47;1.63;;;0.80;;
73672;SDS011;61972;19.480;-99.240;2024-02-26T12:10:22;1.48;;;0.70;;
73672;SDS011;61972;19.480;-99.240;2024-02-26T12:15:30;1.60;;;0.80;;
73672;SDS011;61972;19.480;-99.240;2024-02-26T12:17:58;1.85;;;0.88;;
73672;SDS011;61972;19.480;-99.240;2024-02-26T12:20:25;2.03;;;0.80;;
73672;SDS011;61972;19.480;-99.240;2024-02-26T12:22:51;2.28;;;0.75;;
73672;SDS011;61972;19.480;-99.240;2024-02-26T12:25:28;1.52;;;0.68;;
73672;SDS011;61972;19.480;-99.240;2024-02-26T12:27:54;1.40;;;0.80;;
73672;SDS011;61972;19.480;-99.240;2024-02-26T12:30:21;1.55;;;0.70;;
73672;SDS011;61972;19.480;-99.240;2024-02-26T12:32:48;2.13;;;0.77;;
73672;SDS011;61972;19.480;-99.240;2024-02-26T12:35:15;1.60;;;0.80;;
73672;SDS011;61972;19.480;-99.240;2024-02-26T12:37:45;1.55;;;0.70;;
73672;SDS011;61972;19.480;-99.240;2024-02-26T12:40:12;1.70;;;0.80;;
73672;SDS011;61972;19.480;-99.240;2024-02-26T12:42:38;1.75;;;0.75;;
73672;SDS011;61972;19.480;-99.240;2024-02-26T12:45:06;1.60;;;0.80;;
73672;SDS011;61972;19.480;-99.240;2024-02-26T12:50:08;1.98;;;0.80;;
73672;SDS011;61972;19.480;-99.240;2024-02-26T12:52:37;2.30;;;0.80;;
73672;SDS011;61972;19.480;-99.240;2024-02-26T12:55:11;1.83;;;0.70;;
73672;SDS011;61972;19.480;-99.240;2024-02-26T12:57:40;1.50;;;0.60;;
73672;SDS011;61972;19.480;-99.240;2024-02-26T13:00:08;1.80;;;0.90;;
73672;SDS011;61972;19.480;-99.240;2024-02-26T13:02:41;3.05;;;0.90;;
73672;SDS011;61972;19.480;-99.240;2024-02-26T13:05:11;4.38;;;0.82;;
73672;SDS011;61972;19.480;-99.240;2024-02-26T13:07:43;4.57;;;0.98;;
73672;SDS011;61972;19.480;-99.240;2024-02-26T13:10:10;5.27;;;1.20;;
73672;SDS011;61972;19.480;-99.240;2024-02-26T13:12:46;4.05;;;1.00;;
73672;SDS011;61972;19.480;-99.240;2024-02-26T13:15:16;4.88;;;1.20;;
73672;SDS011;61972;19.480;-99.240;2024-02-26T13:17:49;6.28;;;1.42;;
73672;SDS011;61972;19.480;-99.240;2024-02-26T13:20:25;4.32;;;1.35;;
73672;SDS011;61972;19.480;-99.240;2024-02-26T13:23:14;5.43;;;1.30;;
73672;SDS011;61972;19.480;-99.240;2024-02-26T13:25:39;5.70;;;1.60;;
73672;SDS011;61972;19.480;-99.240;2024-02-26T13:28:06;5.55;;;1.65;;
73672;SDS011;61972;19.480;-99.240;2024-02-26T13:30:33;5.75;;;1.55;;
73672;SDS011;61972;19.480;-99.240;2024-02-26T13:33:12;6.90;;;1.92;;
73672;SDS011;61972;19.480;-99.240;2024-02-26T13:35:38;4.27;;;1.93;;
73672;SDS011;61972;19.480;-99.240;2024-02-26T13:38:05;5.35;;;1.80;;
73672;SDS011;61972;19.480;-99.240;2024-02-26T13:40:32;7.18;;;1.98;;
73672;SDS011;61972;19.480;-99.240;2024-02-26T13:42:59;5.68;;;1.50;;
73672;SDS011;61972;19.480;-99.240;2024-02-26T13:45:26;6.38;;;1.73;;
73672;SDS011;61972;19.480;-99.240;2024-02-26T13:47:52;8.63;;;1.97;;
73672;SDS011;61972;19.480;-99.240;2024-02-26T13:50:18;6.68;;;1.77;;
73672;SDS011;61972;19.480;-99.240;2024-02-26T13:52:47;8.90;;;1.70;;
73672;SDS011;61972;19.480;-99.240;2024-02-26T13:55:18;6.97;;;1.77;;
73672;SDS011;61972;19.480;-99.240;2024-02-26T13:57:45;6.10;;;1.98;;
73672;SDS011;61972;19.480;-99.240;2024-02-26T14:00:12;6.43;;;1.57;;
73672;SDS011;61972;19.480;-99.240;2024-02-26T14:02:42;7.43;;;1.70;;
73672;SDS011;61972;19.480;-99.240;2024-02-26T14:05:08;4.85;;;1.58;;
73672;SDS011;61972;19.480;-99.240;2024-02-26T14:07:34;4.95;;;1.70;;
73672;SDS011;61972;19.480;-99.240;2024-02-26T14:10:00;3.88;;;1.70;;
73672;SDS011;61972;19.480;-99.240;2024-02-26T14:12:26;5.97;;;1.53;;
73672;SDS011;61972;19.480;-99.240;2024-02-26T14:14:53;4.25;;;1.80;;
73672;SDS011;61972;19.480;-99.240;2024-02-26T14:17:24;4.18;;;1.30;;
73672;SDS011;61972;19.480;-99.240;2024-02-26T14:19:50;5.88;;;1.50;;
73672;SDS011;61972;19.480;-99.240;2024-02-26T14:22:16;3.30;;;1.42;;
73672;SDS011;61972;19.480;-99.240;2024-02-26T14:24:42;4.10;;;1.67;;
73672;SDS011;61972;19.480;-99.240;2024-02-26T14:27:08;4.53;;;1.83;;
73672;SDS011;61972;19.480;-99.240;2024-02-26T14:29:39;3.40;;;1.40;;
73672;SDS011;61972;19.480;-99.240;2024-02-26T14:32:07;4.35;;;1.70;;
73672;SDS011;61972;19.480;-99.240;2024-02-26T14:34:33;4.60;;;1.80;;
73672;SDS011;61972;19.480;-99.240;2024-02-26T14:36:59;4.63;;;1.47;;
73672;SDS011;61972;19.480;-99.240;2024-02-26T14:39:28;3.47;;;1.55;;
73672;SDS011;61972;19.480;-99.240;2024-02-26T14:42:00;4.57;;;1.30;;
73672;SDS011;61972;19.480;-99.240;2024-02-26T14:44:27;4.05;;;1.42;;
73672;SDS011;61972;19.480;-99.240;2024-02-26T14:46:53;4.82;;;1.60;;